DLH9MA EPPO-EDDF
Flight info
| Callsign | DLH9MA |
|---|---|
| Flight time | N/A |
| Altitude | 33000 |
| Route | ELSUP1B ELSUP Z181 XIGRI DCT KUBOG DCT NIMAB T171 LASTO T178 KERAX KERAX5A |
| Aircraft | A319/M-V/N |
Departure
| Time | 2026-03-29 15:36 |
|---|---|
| Airport | Poznań-Ławica Airport (EPPO) |
Arrival
| Time | N/A |
|---|---|
| Airport | Frankfurt Main Airport (EDDF) |
| Time | Latitude | Longitude | Altitude | Speed | Heading |
|---|---|---|---|---|---|
| 2026-03-29 15:16 | 52.41573 | 16.83058 | 302 ft | 0 kts | 191° |
| 2026-03-29 15:30 | 52.41575 | 16.83059 | 302 ft | 1 kts | 191° |
| 2026-03-29 15:30 | 52.41591 | 16.83064 | 302 ft | 3 kts | 186° |
| 2026-03-29 15:30 | 52.41612 | 16.83066 | 301 ft | 3 kts | 174° |
| 2026-03-29 15:30 | 52.41630 | 16.83059 | 301 ft | 3 kts | 143° |
| 2026-03-29 15:31 | 52.41640 | 16.83043 | 302 ft | 1 kts | 102° |
| 2026-03-29 15:31 | 52.41640 | 16.83041 | 302 ft | 0 kts | 102° |
| 2026-03-29 15:33 | 52.41638 | 16.83067 | 300 ft | 6 kts | 107° |
| 2026-03-29 15:33 | 52.41622 | 16.83139 | 302 ft | 7 kts | 94° |
| 2026-03-29 15:33 | 52.41614 | 16.83232 | 301 ft | 9 kts | 102° |
| 2026-03-29 15:33 | 52.41598 | 16.83347 | 303 ft | 11 kts | 103° |
| 2026-03-29 15:34 | 52.41579 | 16.83485 | 300 ft | 13 kts | 102° |
| 2026-03-29 15:34 | 52.41569 | 16.83645 | 301 ft | 15 kts | 92° |
| 2026-03-29 15:34 | 52.41564 | 16.83824 | 298 ft | 17 kts | 89° |
| 2026-03-29 15:34 | 52.41632 | 16.83975 | 298 ft | 17 kts | 36° |
| 2026-03-29 15:35 | 52.41747 | 16.84050 | 299 ft | 18 kts | 21° |
| 2026-03-29 15:35 | 52.41830 | 16.84003 | 300 ft | 13 kts | 285° |
| 2026-03-29 15:35 | 52.41876 | 16.83829 | 302 ft | 37 kts | 294° |
| 2026-03-29 15:35 | 52.42040 | 16.82965 | 302 ft | 119 kts | 288° |
| 2026-03-29 15:36 | 52.42354 | 16.81349 | 455 ft | 165 kts | 287° |
| 2026-03-29 15:36 | 52.43047 | 16.77706 | 1841 ft | 181 kts | 287° |
| 2026-03-29 15:36 | 52.43447 | 16.75636 | 2342 ft | 205 kts | 287° |
| 2026-03-29 15:37 | 52.43908 | 16.73262 | 2940 ft | 230 kts | 287° |
| 2026-03-29 15:37 | 52.44416 | 16.70626 | 3607 ft | 253 kts | 287° |
| 2026-03-29 15:37 | 52.44957 | 16.67805 | 4578 ft | 263 kts | 287° |
| 2026-03-29 15:37 | 52.45501 | 16.64960 | 5643 ft | 267 kts | 287° |
| 2026-03-29 15:38 | 52.46062 | 16.62026 | 6721 ft | 271 kts | 287° |
| 2026-03-29 15:38 | 52.46633 | 16.59029 | 7789 ft | 276 kts | 287° |
| 2026-03-29 15:38 | 52.47205 | 16.56037 | 8798 ft | 280 kts | 287° |
| 2026-03-29 15:38 | 52.47799 | 16.52941 | 9806 ft | 285 kts | 287° |
| 2026-03-29 15:39 | 52.48376 | 16.49752 | 10491 ft | 302 kts | 283° |
| 2026-03-29 15:39 | 52.48659 | 16.46206 | 11059 ft | 320 kts | 274° |